This is the latest recevied weather packets stored in our database for station/object WP3OF-2. If no packets are shown the sender has not sent any weather packets the latest 10 day(s).
| Time | Temp. | Humidity | Pressure | Rain* | Wind** | Luminosity | Snow |
|---|---|---|---|---|---|---|---|
| 1788115241 | 19.44° C | 99% | 1023.7 hPa | 1.78 mm | - | 130 W/m² | - |
| 1788114935 | 20° C | 99% | 1024.1 hPa | 3.05 mm | - | 147 W/m² | - |
| 1788114632 | 20.56° C | 99% | 1024.1 hPa | 6.1 mm | - | 104 W/m² | - |
| 1788114326 | 21.67° C | 99% | 1024.1 hPa | 6.1 mm | - | 79 W/m² | - |
| 1788114023 | 22.22° C | 99% | 1024.9 hPa | 9.65 mm | - | 30 W/m² | - |
| 1788113719 | 22.22° C | 99% | 1024.5 hPa | 16.76 mm | - | 54 W/m² | - |
| 1788113418 | 22.22° C | 99% | 1024.9 hPa | 21.08 mm | - | 64 W/m² | - |
| 1788113118 | 22.22° C | 99% | 1024.9 hPa | 1.78 mm | - | 38 W/m² | - |
| 1788112817 | 22.22° C | 99% | 1024.9 hPa | 1.78 mm | - | 38 W/m² | - |
| 1788112517 | 22.78° C | 99% | 1024.9 hPa | 1.27 mm | - | 51 W/m² | - |
| 1788112212 | 22.78° C | 99% | 1024.9 hPa | 0 mm | - | 59 W/m² | - |
| 1788111908 | 22.78° C | 99% | 1024.9 hPa | 0 mm | - | 59 W/m² | - |
| 1788111602 | 22.22° C | 99% | 1024.9 hPa | 3.05 mm | - | 98 W/m² | - |
| 1788111298 | 22.22° C | 99% | 1025.2 hPa | 6.1 mm | - | 94 W/m² | - |
| 1788110993 | 22.22° C | 99% | 1025.2 hPa | 1.78 mm | - | 125 W/m² | - |
| 1788110689 | 22.22° C | 99% | 1025.2 hPa | 1.78 mm | - | 125 W/m² | - |
| 1788110384 | 22.22° C | 99% | 1025.2 hPa | 1.27 mm | - | 81 W/m² | - |
| 1788110080 | 22.22° C | 99% | 1024.9 hPa | 3.56 mm | - | 110 W/m² | - |
| 1788109775 | 22.22° C | 99% | 1025.2 hPa | 4.83 mm | - | 81 W/m² | - |
| 1788109475 | 22.22° C | 99% | 1025.2 hPa | 3.05 mm | - | 83 W/m² | - |
| 1788109172 | 22.22° C | 99% | 1025.2 hPa | 0 mm | - | 103 W/m² | - |
| 1788108869 | 22.22° C | 99% | 1025.2 hPa | 0 mm | - | 121 W/m² | - |
| 1788108565 | 22.22° C | 99% | 1025.6 hPa | 0 mm | - | 131 W/m² | - |
| 1788108260 | 21.67° C | 99% | 1024.9 hPa | 0 mm | - | 230 W/m² | - |
| 1788107967 | 21.67° C | 99% | 1024.9 hPa | 0 mm | - | 230 W/m² | - |
* Rain latest hour (hover to see other rain measurements)
** Current wind speed in m/s (hover to see current wind gust speed)